sensor_id;sensor_type;location;lat;lon;timestamp;P1;durP1;ratioP1;P2;durP2;ratioP2
20283;SDS011;10301;50.832;4.080;2023-08-17T00:01:34;10.45;;;6.07;;
20283;SDS011;10301;50.832;4.080;2023-08-17T00:04:00;9.35;;;6.03;;
20283;SDS011;10301;50.832;4.080;2023-08-17T00:06:25;11.15;;;5.65;;
20283;SDS011;10301;50.832;4.080;2023-08-17T00:08:51;7.18;;;5.13;;
20283;SDS011;10301;50.832;4.080;2023-08-17T00:11:17;10.88;;;5.75;;
20283;SDS011;10301;50.832;4.080;2023-08-17T00:13:42;10.38;;;6.05;;
20283;SDS011;10301;50.832;4.080;2023-08-17T00:16:08;9.90;;;5.35;;
20283;SDS011;10301;50.832;4.080;2023-08-17T00:18:34;9.25;;;5.25;;
20283;SDS011;10301;50.832;4.080;2023-08-17T00:20:59;11.48;;;5.35;;
20283;SDS011;10301;50.832;4.080;2023-08-17T00:23:25;9.00;;;5.25;;
20283;SDS011;10301;50.832;4.080;2023-08-17T00:25:51;10.82;;;5.70;;
20283;SDS011;10301;50.832;4.080;2023-08-17T00:28:16;7.70;;;5.60;;
20283;SDS011;10301;50.832;4.080;2023-08-17T00:30:42;8.23;;;5.57;;
20283;SDS011;10301;50.832;4.080;2023-08-17T00:33:08;9.77;;;5.22;;
20283;SDS011;10301;50.832;4.080;2023-08-17T00:35:34;7.97;;;5.72;;
20283;SDS011;10301;50.832;4.080;2023-08-17T00:37:59;9.38;;;6.05;;
20283;SDS011;10301;50.832;4.080;2023-08-17T00:40:25;7.50;;;5.30;;
20283;SDS011;10301;50.832;4.080;2023-08-17T00:42:51;7.80;;;5.80;;
20283;SDS011;10301;50.832;4.080;2023-08-17T00:45:17;8.45;;;5.50;;
20283;SDS011;10301;50.832;4.080;2023-08-17T00:47:44;9.88;;;5.30;;
20283;SDS011;10301;50.832;4.080;2023-08-17T00:50:10;8.80;;;5.82;;
20283;SDS011;10301;50.832;4.080;2023-08-17T00:52:36;9.25;;;5.70;;
20283;SDS011;10301;50.832;4.080;2023-08-17T00:55:03;9.10;;;5.30;;
20283;SDS011;10301;50.832;4.080;2023-08-17T00:57:30;9.30;;;5.68;;
20283;SDS011;10301;50.832;4.080;2023-08-17T00:59:57;9.30;;;5.47;;
20283;SDS011;10301;50.832;4.080;2023-08-17T01:02:24;9.25;;;5.28;;
20283;SDS011;10301;50.832;4.080;2023-08-17T01:04:50;8.85;;;5.32;;
20283;SDS011;10301;50.832;4.080;2023-08-17T01:07:15;9.55;;;5.68;;
20283;SDS011;10301;50.832;4.080;2023-08-17T01:09:41;8.45;;;5.65;;
20283;SDS011;10301;50.832;4.080;2023-08-17T01:12:16;9.85;;;6.20;;
20283;SDS011;10301;50.832;4.080;2023-08-17T01:17:49;11.98;;;5.65;;
20283;SDS011;10301;50.832;4.080;2023-08-17T01:20:21;7.55;;;4.68;;
20283;SDS011;10301;50.832;4.080;2023-08-17T01:22:48;9.18;;;5.63;;
20283;SDS011;10301;50.832;4.080;2023-08-17T01:25:16;10.00;;;6.07;;
20283;SDS011;10301;50.832;4.080;2023-08-17T01:27:45;7.85;;;5.75;;
20283;SDS011;10301;50.832;4.080;2023-08-17T01:30:12;10.85;;;6.60;;
20283;SDS011;10301;50.832;4.080;2023-08-17T01:35:30;11.30;;;6.75;;
20283;SDS011;10301;50.832;4.080;2023-08-17T01:38:00;8.20;;;6.15;;
20283;SDS011;10301;50.832;4.080;2023-08-17T01:40:31;9.65;;;5.70;;
20283;SDS011;10301;50.832;4.080;2023-08-17T01:42:58;10.35;;;6.03;;
20283;SDS011;10301;50.832;4.080;2023-08-17T01:45:25;8.93;;;6.00;;
20283;SDS011;10301;50.832;4.080;2023-08-17T01:47:51;7.95;;;5.15;;
20283;SDS011;10301;50.832;4.080;2023-08-17T01:50:17;9.63;;;6.22;;
20283;SDS011;10301;50.832;4.080;2023-08-17T01:52:42;8.85;;;5.47;;
20283;SDS011;10301;50.832;4.080;2023-08-17T01:55:08;16.00;;;6.57;;
20283;SDS011;10301;50.832;4.080;2023-08-17T01:57:34;9.55;;;5.30;;
20283;SDS011;10301;50.832;4.080;2023-08-17T02:00:01;8.40;;;5.60;;
20283;SDS011;10301;50.832;4.080;2023-08-17T02:02:29;7.35;;;5.10;;
20283;SDS011;10301;50.832;4.080;2023-08-17T02:04:55;7.18;;;5.20;;
20283;SDS011;10301;50.832;4.080;2023-08-17T02:07:21;9.55;;;5.20;;
20283;SDS011;10301;50.832;4.080;2023-08-17T02:09:46;9.25;;;4.30;;
20283;SDS011;10301;50.832;4.080;2023-08-17T02:12:12;14.05;;;4.55;;
20283;SDS011;10301;50.832;4.080;2023-08-17T02:14:37;8.18;;;4.57;;
20283;SDS011;10301;50.832;4.080;2023-08-17T02:17:03;8.52;;;4.28;;
20283;SDS011;10301;50.832;4.080;2023-08-17T02:19:30;6.50;;;4.40;;
20283;SDS011;10301;50.832;4.080;2023-08-17T02:21:56;5.78;;;4.30;;
20283;SDS011;10301;50.832;4.080;2023-08-17T02:24:22;7.15;;;4.22;;
20283;SDS011;10301;50.832;4.080;2023-08-17T02:26:48;6.72;;;4.28;;
20283;SDS011;10301;50.832;4.080;2023-08-17T02:29:13;9.30;;;4.30;;
20283;SDS011;10301;50.832;4.080;2023-08-17T02:31:39;8.50;;;4.22;;
20283;SDS011;10301;50.832;4.080;2023-08-17T02:34:04;7.70;;;4.20;;
20283;SDS011;10301;50.832;4.080;2023-08-17T02:36:30;7.28;;;4.80;;
20283;SDS011;10301;50.832;4.080;2023-08-17T02:38:56;9.30;;;4.20;;
20283;SDS011;10301;50.832;4.080;2023-08-17T02:41:22;6.70;;;4.22;;
20283;SDS011;10301;50.832;4.080;2023-08-17T02:43:48;9.75;;;4.30;;
20283;SDS011;10301;50.832;4.080;2023-08-17T02:46:13;7.40;;;4.30;;
20283;SDS011;10301;50.832;4.080;2023-08-17T02:48:40;9.05;;;4.43;;
20283;SDS011;10301;50.832;4.080;2023-08-17T02:51:05;7.00;;;3.97;;
20283;SDS011;10301;50.832;4.080;2023-08-17T02:53:31;7.28;;;4.20;;
20283;SDS011;10301;50.832;4.080;2023-08-17T02:55:57;7.10;;;4.40;;
20283;SDS011;10301;50.832;4.080;2023-08-17T02:58:22;9.68;;;3.88;;
20283;SDS011;10301;50.832;4.080;2023-08-17T03:00:50;7.07;;;4.03;;
20283;SDS011;10301;50.832;4.080;2023-08-17T03:03:16;8.35;;;4.53;;
20283;SDS011;10301;50.832;4.080;2023-08-17T03:05:42;9.75;;;4.15;;
20283;SDS011;10301;50.832;4.080;2023-08-17T03:08:08;7.97;;;4.35;;
20283;SDS011;10301;50.832;4.080;2023-08-17T03:10:33;7.63;;;4.63;;
20283;SDS011;10301;50.832;4.080;2023-08-17T03:12:59;6.43;;;4.05;;
20283;SDS011;10301;50.832;4.080;2023-08-17T03:15:25;9.43;;;4.30;;
20283;SDS011;10301;50.832;4.080;2023-08-17T03:17:50;8.05;;;4.20;;
20283;SDS011;10301;50.832;4.080;2023-08-17T03:20:16;9.30;;;4.80;;
20283;SDS011;10301;50.832;4.080;2023-08-17T03:22:42;10.10;;;4.75;;
20283;SDS011;10301;50.832;4.080;2023-08-17T03:25:07;7.53;;;4.35;;
20283;SDS011;10301;50.832;4.080;2023-08-17T03:27:33;7.97;;;4.40;;
20283;SDS011;10301;50.832;4.080;2023-08-17T03:29:59;9.57;;;4.95;;
20283;SDS011;10301;50.832;4.080;2023-08-17T03:32:25;9.15;;;4.43;;
20283;SDS011;10301;50.832;4.080;2023-08-17T03:34:50;8.05;;;4.43;;
20283;SDS011;10301;50.832;4.080;2023-08-17T03:37:16;9.52;;;4.30;;
20283;SDS011;10301;50.832;4.080;2023-08-17T03:39:42;8.63;;;4.13;;
20283;SDS011;10301;50.832;4.080;2023-08-17T03:42:07;13.07;;;5.57;;
20283;SDS011;10301;50.832;4.080;2023-08-17T03:44:33;8.27;;;4.30;;
20283;SDS011;10301;50.832;4.080;2023-08-17T03:46:59;7.97;;;4.95;;
20283;SDS011;10301;50.832;4.080;2023-08-17T03:49:24;10.07;;;4.60;;
20283;SDS011;10301;50.832;4.080;2023-08-17T03:51:50;9.20;;;4.20;;
20283;SDS011;10301;50.832;4.080;2023-08-17T03:54:16;8.40;;;4.57;;
20283;SDS011;10301;50.832;4.080;2023-08-17T03:56:42;11.75;;;4.30;;
20283;SDS011;10301;50.832;4.080;2023-08-17T03:59:08;9.55;;;4.63;;
20283;SDS011;10301;50.832;4.080;2023-08-17T04:01:33;6.30;;;4.07;;
20283;SDS011;10301;50.832;4.080;2023-08-17T04:03:59;7.40;;;3.92;;
20283;SDS011;10301;50.832;4.080;2023-08-17T04:06:25;8.52;;;4.18;;
20283;SDS011;10301;50.832;4.080;2023-08-17T04:08:50;9.27;;;4.90;;
20283;SDS011;10301;50.832;4.080;2023-08-17T04:11:16;7.32;;;4.60;;
20283;SDS011;10301;50.832;4.080;2023-08-17T04:13:41;10.43;;;4.22;;
20283;SDS011;10301;50.832;4.080;2023-08-17T04:16:07;10.50;;;4.18;;
20283;SDS011;10301;50.832;4.080;2023-08-17T04:18:33;7.35;;;4.25;;
20283;SDS011;10301;50.832;4.080;2023-08-17T04:20:58;7.90;;;4.30;;
20283;SDS011;10301;50.832;4.080;2023-08-17T04:23:24;6.90;;;3.95;;
20283;SDS011;10301;50.832;4.080;2023-08-17T04:25:49;9.75;;;4.43;;
20283;SDS011;10301;50.832;4.080;2023-08-17T04:28:15;10.63;;;4.40;;
20283;SDS011;10301;50.832;4.080;2023-08-17T04:30:41;8.35;;;4.28;;
20283;SDS011;10301;50.832;4.080;2023-08-17T04:33:07;9.35;;;4.32;;
20283;SDS011;10301;50.832;4.080;2023-08-17T04:35:32;9.65;;;4.38;;
20283;SDS011;10301;50.832;4.080;2023-08-17T04:37:59;6.88;;;4.40;;
20283;SDS011;10301;50.832;4.080;2023-08-17T04:40:24;8.20;;;4.53;;
20283;SDS011;10301;50.832;4.080;2023-08-17T04:42:50;8.90;;;4.00;;
20283;SDS011;10301;50.832;4.080;2023-08-17T04:45:16;13.65;;;4.53;;
20283;SDS011;10301;50.832;4.080;2023-08-17T04:47:42;8.68;;;4.38;;
20283;SDS011;10301;50.832;4.080;2023-08-17T04:50:07;8.90;;;4.78;;
20283;SDS011;10301;50.832;4.080;2023-08-17T04:52:33;13.93;;;5.18;;
20283;SDS011;10301;50.832;4.080;2023-08-17T04:54:59;10.48;;;4.65;;
20283;SDS011;10301;50.832;4.080;2023-08-17T04:57:24;10.18;;;4.30;;
20283;SDS011;10301;50.832;4.080;2023-08-17T04:59:51;10.07;;;4.28;;
20283;SDS011;10301;50.832;4.080;2023-08-17T05:02:16;7.50;;;4.15;;
20283;SDS011;10301;50.832;4.080;2023-08-17T05:04:42;8.95;;;4.55;;
20283;SDS011;10301;50.832;4.080;2023-08-17T05:07:08;10.20;;;4.63;;
20283;SDS011;10301;50.832;4.080;2023-08-17T05:09:33;9.95;;;4.78;;
20283;SDS011;10301;50.832;4.080;2023-08-17T05:11:59;11.30;;;4.65;;
20283;SDS011;10301;50.832;4.080;2023-08-17T05:14:25;8.32;;;4.70;;
20283;SDS011;10301;50.832;4.080;2023-08-17T05:16:51;13.48;;;4.90;;
20283;SDS011;10301;50.832;4.080;2023-08-17T05:19:16;8.60;;;4.65;;
20283;SDS011;10301;50.832;4.080;2023-08-17T05:21:42;9.00;;;4.68;;
20283;SDS011;10301;50.832;4.080;2023-08-17T05:24:07;10.18;;;5.00;;
20283;SDS011;10301;50.832;4.080;2023-08-17T05:26:33;9.32;;;4.40;;
20283;SDS011;10301;50.832;4.080;2023-08-17T05:28:59;7.75;;;4.30;;
20283;SDS011;10301;50.832;4.080;2023-08-17T05:31:25;8.65;;;4.28;;
20283;SDS011;10301;50.832;4.080;2023-08-17T05:33:50;8.88;;;4.40;;
20283;SDS011;10301;50.832;4.080;2023-08-17T05:36:16;7.05;;;4.45;;
20283;SDS011;10301;50.832;4.080;2023-08-17T05:38:42;10.27;;;4.57;;
20283;SDS011;10301;50.832;4.080;2023-08-17T05:41:08;10.48;;;4.75;;
20283;SDS011;10301;50.832;4.080;2023-08-17T05:43:34;10.23;;;4.75;;
20283;SDS011;10301;50.832;4.080;2023-08-17T05:45:59;9.50;;;5.10;;
20283;SDS011;10301;50.832;4.080;2023-08-17T05:48:25;8.40;;;4.38;;
20283;SDS011;10301;50.832;4.080;2023-08-17T05:50:51;12.50;;;5.35;;
20283;SDS011;10301;50.832;4.080;2023-08-17T05:53:16;10.75;;;4.78;;
20283;SDS011;10301;50.832;4.080;2023-08-17T05:55:42;9.73;;;4.38;;
20283;SDS011;10301;50.832;4.080;2023-08-17T05:58:08;11.10;;;4.55;;
20283;SDS011;10301;50.832;4.080;2023-08-17T06:00:33;8.75;;;4.95;;
20283;SDS011;10301;50.832;4.080;2023-08-17T06:03:00;10.65;;;5.07;;
20283;SDS011;10301;50.832;4.080;2023-08-17T06:05:28;11.13;;;4.70;;
20283;SDS011;10301;50.832;4.080;2023-08-17T06:07:57;7.07;;;4.40;;
20283;SDS011;10301;50.832;4.080;2023-08-17T06:10:23;8.30;;;4.85;;
20283;SDS011;10301;50.832;4.080;2023-08-17T06:12:51;14.05;;;4.95;;
20283;SDS011;10301;50.832;4.080;2023-08-17T06:15:17;8.52;;;4.13;;
20283;SDS011;10301;50.832;4.080;2023-08-17T06:17:43;8.95;;;4.50;;
20283;SDS011;10301;50.832;4.080;2023-08-17T06:20:09;9.98;;;4.55;;
20283;SDS011;10301;50.832;4.080;2023-08-17T06:22:35;10.32;;;4.50;;
20283;SDS011;10301;50.832;4.080;2023-08-17T06:25:01;9.20;;;4.65;;
20283;SDS011;10301;50.832;4.080;2023-08-17T06:27:26;9.50;;;4.32;;
20283;SDS011;10301;50.832;4.080;2023-08-17T06:29:52;7.30;;;4.50;;
20283;SDS011;10301;50.832;4.080;2023-08-17T06:32:17;8.95;;;4.10;;
20283;SDS011;10301;50.832;4.080;2023-08-17T06:34:43;9.50;;;5.30;;
20283;SDS011;10301;50.832;4.080;2023-08-17T06:37:09;8.25;;;4.13;;
20283;SDS011;10301;50.832;4.080;2023-08-17T06:39:34;10.32;;;4.18;;
20283;SDS011;10301;50.832;4.080;2023-08-17T06:42:00;9.98;;;4.72;;
20283;SDS011;10301;50.832;4.080;2023-08-17T06:44:26;9.32;;;4.15;;
20283;SDS011;10301;50.832;4.080;2023-08-17T06:46:51;8.23;;;4.75;;
20283;SDS011;10301;50.832;4.080;2023-08-17T06:49:17;7.18;;;4.60;;
20283;SDS011;10301;50.832;4.080;2023-08-17T06:51:42;8.80;;;5.40;;
20283;SDS011;10301;50.832;4.080;2023-08-17T06:54:08;8.95;;;4.80;;
20283;SDS011;10301;50.832;4.080;2023-08-17T06:56:34;9.35;;;4.40;;
20283;SDS011;10301;50.832;4.080;2023-08-17T06:59:00;8.57;;;4.63;;
20283;SDS011;10301;50.832;4.080;2023-08-17T07:01:26;11.18;;;5.35;;
20283;SDS011;10301;50.832;4.080;2023-08-17T07:03:51;10.52;;;4.63;;
20283;SDS011;10301;50.832;4.080;2023-08-17T07:06:17;10.73;;;4.25;;
20283;SDS011;10301;50.832;4.080;2023-08-17T07:08:43;8.95;;;4.10;;
20283;SDS011;10301;50.832;4.080;2023-08-17T07:11:08;11.13;;;4.72;;
20283;SDS011;10301;50.832;4.080;2023-08-17T07:13:34;7.45;;;4.13;;
20283;SDS011;10301;50.832;4.080;2023-08-17T07:16:00;7.55;;;3.97;;
20283;SDS011;10301;50.832;4.080;2023-08-17T07:18:25;9.98;;;4.70;;
20283;SDS011;10301;50.832;4.080;2023-08-17T07:20:51;8.50;;;4.18;;
20283;SDS011;10301;50.832;4.080;2023-08-17T07:23:17;7.07;;;4.28;;
20283;SDS011;10301;50.832;4.080;2023-08-17T07:25:42;10.95;;;4.30;;
20283;SDS011;10301;50.832;4.080;2023-08-17T07:28:09;8.73;;;4.18;;
20283;SDS011;10301;50.832;4.080;2023-08-17T07:30:34;9.05;;;4.43;;
20283;SDS011;10301;50.832;4.080;2023-08-17T07:33:00;7.70;;;4.20;;
20283;SDS011;10301;50.832;4.080;2023-08-17T07:35:26;8.68;;;4.45;;
20283;SDS011;10301;50.832;4.080;2023-08-17T07:37:52;11.35;;;4.70;;
20283;SDS011;10301;50.832;4.080;2023-08-17T07:40:17;7.47;;;4.90;;
20283;SDS011;10301;50.832;4.080;2023-08-17T07:42:43;10.35;;;5.10;;
20283;SDS011;10301;50.832;4.080;2023-08-17T07:45:11;10.25;;;4.95;;
20283;SDS011;10301;50.832;4.080;2023-08-17T07:47:37;15.90;;;5.18;;
20283;SDS011;10301;50.832;4.080;2023-08-17T07:50:03;13.23;;;5.55;;
20283;SDS011;10301;50.832;4.080;2023-08-17T07:52:29;9.25;;;5.22;;
20283;SDS011;10301;50.832;4.080;2023-08-17T07:54:55;12.55;;;5.43;;
20283;SDS011;10301;50.832;4.080;2023-08-17T07:57:21;10.52;;;5.85;;
20283;SDS011;10301;50.832;4.080;2023-08-17T07:59:46;10.00;;;5.90;;
20283;SDS011;10301;50.832;4.080;2023-08-17T08:02:12;11.02;;;5.78;;
20283;SDS011;10301;50.832;4.080;2023-08-17T08:04:38;11.63;;;6.30;;
20283;SDS011;10301;50.832;4.080;2023-08-17T08:07:04;15.38;;;5.78;;
20283;SDS011;10301;50.832;4.080;2023-08-17T08:09:31;12.52;;;6.20;;
20283;SDS011;10301;50.832;4.080;2023-08-17T08:11:56;13.73;;;7.38;;
20283;SDS011;10301;50.832;4.080;2023-08-17T08:14:22;14.15;;;7.05;;
20283;SDS011;10301;50.832;4.080;2023-08-17T08:16:48;13.43;;;7.30;;
20283;SDS011;10301;50.832;4.080;2023-08-17T08:19:13;15.27;;;7.28;;
20283;SDS011;10301;50.832;4.080;2023-08-17T08:21:39;12.18;;;6.75;;
20283;SDS011;10301;50.832;4.080;2023-08-17T08:24:05;15.15;;;7.10;;
20283;SDS011;10301;50.832;4.080;2023-08-17T08:26:30;16.58;;;7.65;;
20283;SDS011;10301;50.832;4.080;2023-08-17T08:28:56;16.58;;;7.57;;
20283;SDS011;10301;50.832;4.080;2023-08-17T08:31:22;10.93;;;7.00;;
20283;SDS011;10301;50.832;4.080;2023-08-17T08:33:47;15.32;;;7.55;;
20283;SDS011;10301;50.832;4.080;2023-08-17T08:36:13;15.88;;;8.13;;
20283;SDS011;10301;50.832;4.080;2023-08-17T08:38:39;14.23;;;7.57;;
20283;SDS011;10301;50.832;4.080;2023-08-17T08:41:05;16.13;;;7.30;;
20283;SDS011;10301;50.832;4.080;2023-08-17T08:43:33;11.65;;;7.03;;
20283;SDS011;10301;50.832;4.080;2023-08-17T08:45:59;11.63;;;6.78;;
20283;SDS011;10301;50.832;4.080;2023-08-17T08:48:26;13.27;;;7.03;;
20283;SDS011;10301;50.832;4.080;2023-08-17T08:50:52;11.95;;;7.13;;
20283;SDS011;10301;50.832;4.080;2023-08-17T08:53:22;14.27;;;8.30;;
20283;SDS011;10301;50.832;4.080;2023-08-17T08:55:57;14.68;;;8.48;;
20283;SDS011;10301;50.832;4.080;2023-08-17T08:58:24;13.93;;;7.95;;
20283;SDS011;10301;50.832;4.080;2023-08-17T09:00:50;14.60;;;7.50;;
20283;SDS011;10301;50.832;4.080;2023-08-17T09:03:18;17.92;;;8.23;;
20283;SDS011;10301;50.832;4.080;2023-08-17T09:05:48;14.13;;;7.85;;
20283;SDS011;10301;50.832;4.080;2023-08-17T09:08:15;10.93;;;7.00;;
20283;SDS011;10301;50.832;4.080;2023-08-17T09:10:45;14.93;;;8.02;;
20283;SDS011;10301;50.832;4.080;2023-08-17T09:13:12;14.52;;;7.55;;
20283;SDS011;10301;50.832;4.080;2023-08-17T09:15:37;12.15;;;7.32;;
20283;SDS011;10301;50.832;4.080;2023-08-17T09:18:05;13.23;;;7.35;;
20283;SDS011;10301;50.832;4.080;2023-08-17T09:20:40;14.10;;;7.03;;
20283;SDS011;10301;50.832;4.080;2023-08-17T09:23:17;15.38;;;7.30;;
20283;SDS011;10301;50.832;4.080;2023-08-17T09:25:46;12.70;;;7.40;;
20283;SDS011;10301;50.832;4.080;2023-08-17T09:28:14;12.77;;;6.88;;
20283;SDS011;10301;50.832;4.080;2023-08-17T09:30:50;15.45;;;6.95;;
20283;SDS011;10301;50.832;4.080;2023-08-17T09:33:27;12.65;;;7.25;;
20283;SDS011;10301;50.832;4.080;2023-08-17T09:35:54;10.55;;;6.70;;
20283;SDS011;10301;50.832;4.080;2023-08-17T09:38:22;10.77;;;6.80;;
20283;SDS011;10301;50.832;4.080;2023-08-17T09:40:48;13.02;;;7.03;;
20283;SDS011;10301;50.832;4.080;2023-08-17T09:43:14;11.82;;;6.57;;
20283;SDS011;10301;50.832;4.080;2023-08-17T09:45:42;14.75;;;7.40;;
20283;SDS011;10301;50.832;4.080;2023-08-17T09:48:14;10.45;;;6.50;;
20283;SDS011;10301;50.832;4.080;2023-08-17T09:50:44;12.70;;;7.22;;
20283;SDS011;10301;50.832;4.080;2023-08-17T09:53:12;12.38;;;7.10;;
20283;SDS011;10301;50.832;4.080;2023-08-17T09:55:39;14.38;;;6.90;;
20283;SDS011;10301;50.832;4.080;2023-08-17T09:58:07;12.48;;;6.35;;
20283;SDS011;10301;50.832;4.080;2023-08-17T10:00:40;13.90;;;7.00;;
20283;SDS011;10301;50.832;4.080;2023-08-17T10:03:17;11.93;;;6.93;;
20283;SDS011;10301;50.832;4.080;2023-08-17T10:05:45;12.25;;;6.78;;
20283;SDS011;10301;50.832;4.080;2023-08-17T10:08:20;12.32;;;6.50;;
20283;SDS011;10301;50.832;4.080;2023-08-17T10:10:47;10.43;;;6.85;;
20283;SDS011;10301;50.832;4.080;2023-08-17T10:13:18;13.82;;;7.75;;
20283;SDS011;10301;50.832;4.080;2023-08-17T10:16:03;13.30;;;6.97;;
20283;SDS011;10301;50.832;4.080;2023-08-17T10:21:27;11.43;;;6.75;;
20283;SDS011;10301;50.832;4.080;2023-08-17T10:23:57;15.07;;;6.72;;
20283;SDS011;10301;50.832;4.080;2023-08-17T10:26:23;11.90;;;7.35;;
20283;SDS011;10301;50.832;4.080;2023-08-17T10:28:50;14.00;;;7.47;;
20283;SDS011;10301;50.832;4.080;2023-08-17T10:31:16;14.98;;;8.10;;
20283;SDS011;10301;50.832;4.080;2023-08-17T10:33:42;15.02;;;8.70;;
20283;SDS011;10301;50.832;4.080;2023-08-17T10:36:11;15.73;;;9.23;;
20283;SDS011;10301;50.832;4.080;2023-08-17T10:38:37;17.13;;;8.52;;
20283;SDS011;10301;50.832;4.080;2023-08-17T10:41:12;12.63;;;7.80;;
20283;SDS011;10301;50.832;4.080;2023-08-17T10:43:58;14.20;;;7.78;;
20283;SDS011;10301;50.832;4.080;2023-08-17T10:46:34;13.30;;;7.82;;
20283;SDS011;10301;50.832;4.080;2023-08-17T10:49:04;12.80;;;7.93;;
20283;SDS011;10301;50.832;4.080;2023-08-17T10:51:31;13.52;;;8.63;;
20283;SDS011;10301;50.832;4.080;2023-08-17T10:54:03;18.67;;;10.00;;
20283;SDS011;10301;50.832;4.080;2023-08-17T10:56:29;15.05;;;9.15;;
20283;SDS011;10301;50.832;4.080;2023-08-17T10:58:59;15.48;;;9.15;;
20283;SDS011;10301;50.832;4.080;2023-08-17T11:01:33;15.75;;;9.27;;
20283;SDS011;10301;50.832;4.080;2023-08-17T11:04:10;16.98;;;9.95;;
20283;SDS011;10301;50.832;4.080;2023-08-17T11:06:37;13.45;;;9.25;;
20283;SDS011;10301;50.832;4.080;2023-08-17T11:09:06;13.93;;;7.80;;
20283;SDS011;10301;50.832;4.080;2023-08-17T11:11:32;10.52;;;7.20;;
20283;SDS011;10301;50.832;4.080;2023-08-17T11:13:58;12.13;;;7.10;;
20283;SDS011;10301;50.832;4.080;2023-08-17T11:16:24;12.90;;;7.60;;
20283;SDS011;10301;50.832;4.080;2023-08-17T11:18:49;12.70;;;7.63;;
20283;SDS011;10301;50.832;4.080;2023-08-17T11:21:16;11.85;;;7.70;;
20283;SDS011;10301;50.832;4.080;2023-08-17T11:23:42;9.32;;;6.50;;
20283;SDS011;10301;50.832;4.080;2023-08-17T11:26:08;10.88;;;7.47;;
20283;SDS011;10301;50.832;4.080;2023-08-17T11:28:34;13.95;;;7.88;;
20283;SDS011;10301;50.832;4.080;2023-08-17T11:31:06;14.55;;;7.30;;
20283;SDS011;10301;50.832;4.080;2023-08-17T11:33:34;11.55;;;7.50;;
20283;SDS011;10301;50.832;4.080;2023-08-17T11:36:02;13.90;;;7.55;;
20283;SDS011;10301;50.832;4.080;2023-08-17T11:38:32;10.15;;;7.68;;
20283;SDS011;10301;50.832;4.080;2023-08-17T11:41:03;13.07;;;7.40;;
20283;SDS011;10301;50.832;4.080;2023-08-17T11:43:29;12.35;;;7.55;;
20283;SDS011;10301;50.832;4.080;2023-08-17T11:45:55;12.20;;;7.18;;
20283;SDS011;10301;50.832;4.080;2023-08-17T11:48:23;12.95;;;7.53;;
20283;SDS011;10301;50.832;4.080;2023-08-17T11:50:49;12.57;;;7.90;;
20283;SDS011;10301;50.832;4.080;2023-08-17T11:53:15;12.63;;;7.97;;
20283;SDS011;10301;50.832;4.080;2023-08-17T11:55:41;11.73;;;7.90;;
20283;SDS011;10301;50.832;4.080;2023-08-17T11:58:06;12.70;;;7.47;;
20283;SDS011;10301;50.832;4.080;2023-08-17T12:00:36;13.32;;;7.72;;
20283;SDS011;10301;50.832;4.080;2023-08-17T12:03:06;12.43;;;8.25;;
20283;SDS011;10301;50.832;4.080;2023-08-17T12:05:32;13.00;;;7.55;;
20283;SDS011;10301;50.832;4.080;2023-08-17T12:07:59;13.63;;;7.70;;
20283;SDS011;10301;50.832;4.080;2023-08-17T12:10:29;12.07;;;8.00;;
20283;SDS011;10301;50.832;4.080;2023-08-17T12:13:00;9.30;;;7.13;;
20283;SDS011;10301;50.832;4.080;2023-08-17T12:15:33;11.27;;;7.43;;
20283;SDS011;10301;50.832;4.080;2023-08-17T12:18:01;19.02;;;8.10;;
20283;SDS011;10301;50.832;4.080;2023-08-17T12:20:28;12.98;;;8.45;;
20283;SDS011;10301;50.832;4.080;2023-08-17T12:22:56;10.23;;;7.93;;
20283;SDS011;10301;50.832;4.080;2023-08-17T12:25:23;12.88;;;8.93;;
20283;SDS011;10301;50.832;4.080;2023-08-17T12:27:49;10.57;;;7.18;;
20283;SDS011;10301;50.832;4.080;2023-08-17T12:32:51;13.75;;;9.48;;
20283;SDS011;10301;50.832;4.080;2023-08-17T12:35:17;14.65;;;8.43;;
20283;SDS011;10301;50.832;4.080;2023-08-17T12:37:44;10.98;;;7.70;;
20283;SDS011;10301;50.832;4.080;2023-08-17T12:40:09;13.25;;;8.88;;
20283;SDS011;10301;50.832;4.080;2023-08-17T12:42:35;11.70;;;8.38;;
20283;SDS011;10301;50.832;4.080;2023-08-17T12:45:01;15.75;;;8.25;;
20283;SDS011;10301;50.832;4.080;2023-08-17T12:47:27;11.02;;;8.27;;
20283;SDS011;10301;50.832;4.080;2023-08-17T12:49:52;12.40;;;8.48;;
20283;SDS011;10301;50.832;4.080;2023-08-17T12:52:18;14.07;;;8.30;;
20283;SDS011;10301;50.832;4.080;2023-08-17T12:54:44;14.90;;;9.50;;
20283;SDS011;10301;50.832;4.080;2023-08-17T12:57:09;13.25;;;9.13;;
20283;SDS011;10301;50.832;4.080;2023-08-17T12:59:35;13.07;;;9.90;;
20283;SDS011;10301;50.832;4.080;2023-08-17T13:02:01;14.48;;;8.60;;
20283;SDS011;10301;50.832;4.080;2023-08-17T13:04:26;13.50;;;9.60;;
20283;SDS011;10301;50.832;4.080;2023-08-17T13:06:52;14.07;;;10.40;;
20283;SDS011;10301;50.832;4.080;2023-08-17T13:09:18;16.60;;;10.13;;
20283;SDS011;10301;50.832;4.080;2023-08-17T13:11:44;15.75;;;10.38;;
20283;SDS011;10301;50.832;4.080;2023-08-17T13:14:11;15.35;;;10.73;;
20283;SDS011;10301;50.832;4.080;2023-08-17T13:16:39;14.23;;;10.27;;
20283;SDS011;10301;50.832;4.080;2023-08-17T13:19:05;14.88;;;10.38;;
20283;SDS011;10301;50.832;4.080;2023-08-17T13:21:31;14.43;;;10.68;;
20283;SDS011;10301;50.832;4.080;2023-08-17T13:23:56;16.23;;;11.27;;
20283;SDS011;10301;50.832;4.080;2023-08-17T13:26:22;17.02;;;11.02;;
20283;SDS011;10301;50.832;4.080;2023-08-17T13:28:48;15.95;;;10.88;;
20283;SDS011;10301;50.832;4.080;2023-08-17T13:31:13;16.05;;;10.35;;
20283;SDS011;10301;50.832;4.080;2023-08-17T13:33:39;15.23;;;10.73;;
20283;SDS011;10301;50.832;4.080;2023-08-17T13:36:05;15.50;;;10.93;;
20283;SDS011;10301;50.832;4.080;2023-08-17T13:38:31;14.98;;;11.40;;
20283;SDS011;10301;50.832;4.080;2023-08-17T13:40:57;18.88;;;10.60;;
20283;SDS011;10301;50.832;4.080;2023-08-17T13:43:23;16.70;;;11.50;;
20283;SDS011;10301;50.832;4.080;2023-08-17T13:45:48;18.15;;;11.85;;
20283;SDS011;10301;50.832;4.080;2023-08-17T13:48:14;18.38;;;11.15;;
20283;SDS011;10301;50.832;4.080;2023-08-17T13:50:40;12.75;;;9.95;;
20283;SDS011;10301;50.832;4.080;2023-08-17T13:53:06;14.80;;;11.02;;
20283;SDS011;10301;50.832;4.080;2023-08-17T13:55:31;17.42;;;11.52;;
20283;SDS011;10301;50.832;4.080;2023-08-17T13:57:58;16.10;;;11.63;;
20283;SDS011;10301;50.832;4.080;2023-08-17T14:00:24;17.90;;;11.98;;
20283;SDS011;10301;50.832;4.080;2023-08-17T14:02:51;17.17;;;12.48;;
20283;SDS011;10301;50.832;4.080;2023-08-17T14:05:17;17.60;;;12.20;;
20283;SDS011;10301;50.832;4.080;2023-08-17T14:07:43;19.00;;;11.07;;
20283;SDS011;10301;50.832;4.080;2023-08-17T14:10:08;16.92;;;11.43;;
20283;SDS011;10301;50.832;4.080;2023-08-17T14:12:35;14.25;;;11.68;;
20283;SDS011;10301;50.832;4.080;2023-08-17T14:15:00;17.55;;;10.88;;
20283;SDS011;10301;50.832;4.080;2023-08-17T14:17:26;14.27;;;11.15;;
20283;SDS011;10301;50.832;4.080;2023-08-17T14:19:51;16.15;;;10.80;;
20283;SDS011;10301;50.832;4.080;2023-08-17T14:22:17;16.95;;;11.23;;
20283;SDS011;10301;50.832;4.080;2023-08-17T14:24:43;17.90;;;12.23;;
20283;SDS011;10301;50.832;4.080;2023-08-17T14:27:08;16.38;;;12.13;;
20283;SDS011;10301;50.832;4.080;2023-08-17T14:29:34;15.48;;;11.73;;
20283;SDS011;10301;50.832;4.080;2023-08-17T14:31:59;17.13;;;12.23;;
20283;SDS011;10301;50.832;4.080;2023-08-17T14:34:25;18.73;;;13.20;;
20283;SDS011;10301;50.832;4.080;2023-08-17T14:36:51;17.83;;;11.48;;
20283;SDS011;10301;50.832;4.080;2023-08-17T14:39:16;17.42;;;12.50;;
20283;SDS011;10301;50.832;4.080;2023-08-17T14:41:42;20.00;;;13.52;;
20283;SDS011;10301;50.832;4.080;2023-08-17T14:44:08;16.83;;;12.80;;
20283;SDS011;10301;50.832;4.080;2023-08-17T14:46:34;19.02;;;13.23;;